Time;durP1;ratioP1;P1;durP2;ratioP2;P2;SDS_P1;SDS_P2;PMS_P1;PMS_P2;Temp;Humidity;BMP_temperature;BMP_pressure;BME280_temperature;BME280_humidity;BME280_pressure;Samples;Min_cycle;Max_cycle;Signal;HPM_P1;HPM_P2
2021/03/09 00:01:59;;;;;;;147.65;60.63;;;5.40;58.70;;;;;;5033160;28;20797;-72
2021/03/09 00:04:24;;;;;;;149.85;59.85;;;5.40;59.20;;;;;;5015082;28;20389;-73
2021/03/09 00:06:50;;;;;;;145.30;61.08;;;5.40;59.50;;;;;;5013179;28;20427;-72
2021/03/09 00:09:16;;;;;;;141.95;60.50;;;5.40;59.30;;;;;;5020637;28;20738;-73
2021/03/09 00:11:41;;;;;;;143.17;60.40;;;5.50;58.80;;;;;;5008156;28;20445;-72
2021/03/09 00:14:07;;;;;;;154.20;60.73;;;5.50;59.20;;;;;;5013039;28;20428;-72
2021/03/09 00:16:32;;;;;;;144.50;60.70;;;5.60;58.70;;;;;;5014107;28;20439;-72
2021/03/09 00:18:58;;;;;;;144.07;59.20;;;5.50;58.40;;;;;;5014014;28;21142;-73
2021/03/09 00:21:23;;;;;;;145.10;60.27;;;5.50;58.60;;;;;;5013299;28;20413;-73
2021/03/09 00:23:49;;;;;;;150.47;60.13;;;5.50;58.50;;;;;;5013035;28;20392;-73
2021/03/09 00:26:14;;;;;;;142.57;59.50;;;5.50;59.00;;;;;;5013151;28;20480;-73
2021/03/09 00:28:40;;;;;;;145.50;58.90;;;5.50;59.80;;;;;;5013106;28;20397;-72
2021/03/09 00:31:05;;;;;;;150.13;59.97;;;5.50;59.90;;;;;;5012970;28;20387;-73
2021/03/09 00:33:31;;;;;;;141.83;59.73;;;5.50;60.50;;;;;;5017153;28;20405;-72
2021/03/09 00:35:57;;;;;;;146.50;59.17;;;5.50;61.50;;;;;;5029173;28;20399;-73
2021/03/09 00:38:23;;;;;;;145.60;59.97;;;5.50;61.60;;;;;;5029681;28;20423;-73
2021/03/09 00:40:49;;;;;;;150.27;61.70;;;5.60;61.30;;;;;;5022587;28;20437;-72
2021/03/09 00:43:14;;;;;;;134.55;58.40;;;5.50;61.40;;;;;;5013982;28;20864;-72
2021/03/09 00:45:40;;;;;;;148.85;61.10;;;5.60;60.20;;;;;;5012651;28;20524;-71
2021/03/09 00:48:06;;;;;;;145.82;61.13;;;5.60;62.10;;;;;;5012459;28;20385;-72
2021/03/09 00:50:32;;;;;;;149.55;60.42;;;5.60;62.20;;;;;;5012349;28;20385;-73
2021/03/09 00:52:57;;;;;;;156.95;62.55;;;5.50;63.70;;;;;;5027125;28;20860;-73
2021/03/09 00:55:23;;;;;;;143.25;59.80;;;5.50;64.60;;;;;;5032522;28;20462;-72
2021/03/09 00:57:59;;;;;;;152.98;61.45;;;5.50;65.60;;;;;;5032444;28;20394;-73
2021/03/09 01:00:26;;;;;;;149.23;61.05;;;5.40;64.80;;;;;;5031997;28;20447;-73
2021/03/09 01:02:51;;;;;;;149.55;61.00;;;5.40;66.40;;;;;;5027243;28;20381;-72
2021/03/09 01:05:17;;;;;;;153.85;61.58;;;5.50;66.90;;;;;;5012631;28;20400;-72
2021/03/09 01:07:43;;;;;;;141.53;59.23;;;5.50;64.80;;;;;;5030431;28;20395;-73
2021/03/09 01:10:10;;;;;;;151.20;63.40;;;5.40;66.10;;;;;;5032771;28;20398;-72
2021/03/09 01:12:36;;;;;;;155.43;59.65;;;5.30;67.10;;;;;;5017919;28;20389;-72
2021/03/09 01:15:02;;;;;;;159.77;63.27;;;5.30;68.20;;;;;;5012981;28;20400;-72
2021/03/09 01:17:27;;;;;;;149.75;61.47;;;5.30;68.60;;;;;;5012999;28;20386;-72
2021/03/09 01:19:53;;;;;;;151.43;62.00;;;5.30;68.90;;;;;;4994420;28;20423;-72
2021/03/09 01:22:19;;;;;;;161.20;62.60;;;5.30;69.30;;;;;;5012394;28;20385;-72
2021/03/09 01:24:44;;;;;;;153.63;61.57;;;5.30;70.30;;;;;;5011931;28;20871;-72
2021/03/09 01:27:11;;;;;;;138.20;58.57;;;5.40;71.60;;;;;;5011854;28;20557;-71
2021/03/09 01:29:37;;;;;;;150.98;61.35;;;5.40;71.60;;;;;;5011475;28;20396;-71
2021/03/09 01:32:04;;;;;;;153.88;60.80;;;5.40;70.70;;;;;;5011758;28;20388;-72
2021/03/09 01:34:29;;;;;;;157.50;62.45;;;5.30;71.50;;;;;;5010570;28;20405;-71
2021/03/09 01:36:55;;;;;;;153.33;61.57;;;5.30;72.40;;;;;;5031337;28;20395;-72
2021/03/09 01:39:21;;;;;;;156.23;60.57;;;5.30;73.30;;;;;;5032157;28;20430;-71
2021/03/09 01:41:46;;;;;;;153.70;61.10;;;5.20;73.80;;;;;;5013860;28;20397;-72
2021/03/09 01:44:12;;;;;;;157.45;61.13;;;5.20;74.10;;;;;;5012258;28;20385;-72
2021/03/09 01:46:41;;;;;;;159.10;63.05;;;5.20;74.20;;;;;;5012739;28;20384;-73
2021/03/09 01:49:07;;;;;;;159.18;61.20;;;5.10;74.90;;;;;;5014356;28;20399;-73
2021/03/09 01:51:33;;;;;;;146.02;59.95;;;5.20;75.40;;;;;;5012558;28;20407;-71
2021/03/09 01:53:58;;;;;;;155.67;60.00;;;5.30;76.10;;;;;;5011065;28;20479;-72
2021/03/09 01:56:24;;;;;;;143.70;59.27;;;5.30;75.40;;;;;;5011773;28;20389;-73
2021/03/09 01:58:50;;;;;;;149.38;60.08;;;5.30;75.30;;;;;;5023020;28;20402;-73
2021/03/09 02:01:16;;;;;;;145.90;60.22;;;5.30;75.40;;;;;;5031336;28;20414;-71
2021/03/09 02:03:43;;;;;;;148.55;59.25;;;5.30;76.40;;;;;;5021907;28;20395;-72
2021/03/09 02:06:12;;;;;;;144.07;58.10;;;5.30;76.40;;;;;;5031676;28;20458;-72
2021/03/09 02:08:38;;;;;;;141.80;58.35;;;5.30;76.80;;;;;;5031464;28;20391;-73
2021/03/09 02:11:09;;;;;;;134.40;56.50;;;5.50;77.70;;;;;;5031918;28;20387;-72
2021/03/09 02:13:47;;;;;;;152.68;60.08;;;5.50;76.00;;;;;;5032189;28;20390;-71
2021/03/09 02:16:27;;;;;;;146.35;58.05;;;5.50;76.00;;;;;;5031100;28;20873;-75
2021/03/09 02:19:26;;;;;;;141.35;57.28;;;5.50;76.50;;;;;;5028123;28;20477;-72
2021/03/09 02:22:23;;;;;;;121.60;52.20;;;5.50;76.70;;;;;;4993991;28;20399;-71
2021/03/09 02:25:30;;;;;;;97.28;45.60;;;5.60;73.20;;;;;;5030791;28;20380;-71
2021/03/09 02:28:10;;;;;;;95.07;44.13;;;5.80;68.80;;;;;;4950425;29;20935;-72
2021/03/09 02:30:44;;;;;;;93.45;44.85;;;5.70;69.30;;;;;;4950225;29;20401;-71
2021/03/09 02:33:15;;;;;;;101.37;47.70;;;5.60;70.80;;;;;;4997654;28;20411;-72
2021/03/09 02:35:48;;;;;;;88.18;42.40;;;5.60;71.90;;;;;;5030501;28;20384;-73
2021/03/09 02:38:17;;;;;;;81.38;40.83;;;5.60;70.20;;;;;;5030705;28;20509;-72
2021/03/09 02:40:44;;;;;;;84.53;42.28;;;5.70;68.20;;;;;;5020354;28;20768;-73
2021/03/09 02:43:15;;;;;;;82.57;40.80;;;5.70;67.60;;;;;;5010416;28;20385;-73
2021/03/09 02:45:42;;;;;;;81.70;39.60;;;5.80;64.80;;;;;;5010922;28;20459;-73
2021/03/09 02:48:08;;;;;;;84.22;40.42;;;5.70;66.40;;;;;;5028275;28;20403;-73
2021/03/09 02:50:35;;;;;;;82.00;40.33;;;5.70;67.30;;;;;;5030203;28;20952;-72
2021/03/09 02:53:06;;;;;;;76.95;39.45;;;5.80;64.50;;;;;;5030275;28;20395;-71
2021/03/09 02:55:33;;;;;;;89.75;41.42;;;5.80;62.40;;;;;;5025364;28;20397;-71
2021/03/09 02:57:59;;;;;;;84.75;40.10;;;5.80;64.00;;;;;;5010572;28;20415;-72
2021/03/09 03:00:26;;;;;;;84.25;41.80;;;5.80;63.20;;;;;;5010298;28;20416;-71
2021/03/09 03:02:51;;;;;;;83.82;41.78;;;5.70;63.90;;;;;;5010406;28;20427;-73
2021/03/09 03:05:18;;;;;;;79.20;41.33;;;5.70;64.90;;;;;;5010417;28;20392;-73
2021/03/09 03:07:45;;;;;;;78.22;40.05;;;5.60;66.50;;;;;;5010661;28;20403;-71
2021/03/09 03:10:15;;;;;;;77.80;40.23;;;5.80;63.10;;;;;;5016971;28;20432;-71
2021/03/09 03:12:41;;;;;;;80.15;39.92;;;5.80;62.70;;;;;;5012907;28;20434;-72
2021/03/09 03:15:10;;;;;;;82.57;41.45;;;5.80;63.20;;;;;;5030504;28;20395;-72
2021/03/09 03:17:36;;;;;;;82.05;41.22;;;5.80;63.40;;;;;;5030394;28;20414;-73
2021/03/09 03:20:03;;;;;;;77.37;38.17;;;5.80;63.00;;;;;;5012443;28;20600;-72
2021/03/09 03:22:30;;;;;;;77.68;39.67;;;6.00;59.50;;;;;;5031215;28;20418;-72
2021/03/09 03:24:56;;;;;;;79.13;41.00;;;6.00;59.60;;;;;;5028302;28;20746;-71
2021/03/09 03:27:22;;;;;;;88.72;42.15;;;5.80;61.90;;;;;;5032755;28;20383;-72
2021/03/09 03:29:48;;;;;;;77.23;39.63;;;5.80;62.40;;;;;;5035256;28;20383;-72
2021/03/09 03:32:15;;;;;;;86.35;42.70;;;5.70;64.80;;;;;;5034874;28;20962;-72
2021/03/09 03:34:44;;;;;;;81.97;40.50;;;5.70;63.30;;;;;;5033961;28;20490;-73
2021/03/09 03:37:10;;;;;;;94.53;43.78;;;5.70;63.80;;;;;;5033677;28;20392;-73
2021/03/09 03:39:36;;;;;;;92.43;43.17;;;5.70;62.20;;;;;;5029614;28;20943;-73
2021/03/09 03:42:02;;;;;;;85.05;42.95;;;5.80;60.70;;;;;;5013872;28;20584;-72
2021/03/09 03:44:28;;;;;;;88.72;43.25;;;5.70;62.20;;;;;;5014566;28;21190;-73
2021/03/09 03:46:53;;;;;;;94.00;44.77;;;5.70;63.60;;;;;;5014332;28;20384;-73
2021/03/09 03:49:19;;;;;;;92.03;43.27;;;5.70;63.50;;;;;;5014874;28;20439;-72
2021/03/09 03:51:49;;;;;;;84.50;43.37;;;5.70;62.10;;;;;;5015144;28;20388;-72
2021/03/09 03:54:34;;;;;;;90.60;44.92;;;5.70;61.70;;;;;;5015081;28;20408;-73
2021/03/09 03:57:12;;;;;;;94.68;45.97;;;5.70;61.80;;;;;;5014175;28;20380;-72
2021/03/09 03:59:41;;;;;;;97.38;46.25;;;5.70;62.60;;;;;;5014430;28;20400;-73
2021/03/09 04:02:09;;;;;;;101.80;47.90;;;5.70;64.20;;;;;;5014286;28;20401;-72
2021/03/09 04:04:38;;;;;;;99.10;47.60;;;5.70;62.30;;;;;;5014313;28;20389;-73
2021/03/09 04:07:05;;;;;;;94.90;44.53;;;5.70;62.60;;;;;;5021764;28;20478;-73
2021/03/09 04:09:31;;;;;;;104.68;49.42;;;5.80;62.30;;;;;;5035039;28;20386;-73
2021/03/09 04:11:59;;;;;;;102.00;50.35;;;5.60;64.80;;;;;;5033921;28;20799;-72
2021/03/09 04:14:25;;;;;;;101.18;49.25;;;5.60;64.10;;;;;;5033197;28;20391;-73
2021/03/09 04:16:53;;;;;;;104.13;49.77;;;5.50;65.90;;;;;;5033133;28;21055;-70
2021/03/09 04:19:20;;;;;;;98.80;47.65;;;5.40;67.00;;;;;;5032944;28;20422;-72
2021/03/09 04:21:47;;;;;;;111.43;49.90;;;5.50;66.30;;;;;;5019465;28;20400;-71
2021/03/09 04:24:13;;;;;;;113.97;50.75;;;5.60;65.10;;;;;;5012932;28;20476;-72
2021/03/09 04:26:41;;;;;;;107.70;49.77;;;5.50;67.20;;;;;;5013072;28;20378;-72
2021/03/09 04:29:09;;;;;;;115.25;52.80;;;5.50;68.60;;;;;;5011571;28;20438;-72
2021/03/09 04:31:35;;;;;;;113.63;51.50;;;5.50;69.90;;;;;;5012896;28;20475;-73
2021/03/09 04:34:01;;;;;;;110.80;52.50;;;5.60;69.00;;;;;;5012703;28;20407;-72
2021/03/09 04:36:27;;;;;;;110.95;53.60;;;5.50;69.10;;;;;;5024469;28;20851;-72
2021/03/09 04:38:53;;;;;;;108.45;53.38;;;5.50;69.60;;;;;;5013566;28;20406;-71
2021/03/09 04:41:18;;;;;;;106.28;51.03;;;5.50;67.90;;;;;;5017594;28;20405;-72
2021/03/09 04:43:44;;;;;;;119.40;54.57;;;5.50;66.10;;;;;;4996276;28;20396;-72
2021/03/09 04:46:10;;;;;;;107.60;51.23;;;5.50;67.60;;;;;;5016822;28;20902;-73
2021/03/09 04:48:38;;;;;;;112.07;52.92;;;5.50;66.20;;;;;;5033377;28;20402;-72
2021/03/09 04:51:11;;;;;;;108.10;52.97;;;5.50;66.80;;;;;;5032504;28;20387;-72
2021/03/09 04:53:39;;;;;;;113.38;53.80;;;5.50;67.50;;;;;;5032243;28;20387;-73
2021/03/09 04:56:05;;;;;;;116.22;53.83;;;5.50;68.00;;;;;;5015568;28;20893;-73
2021/03/09 04:58:31;;;;;;;111.13;53.20;;;5.50;68.10;;;;;;5033452;28;20513;-72
2021/03/09 05:00:56;;;;;;;104.85;50.35;;;5.50;64.50;;;;;;5011368;28;20411;-72
2021/03/09 05:03:23;;;;;;;110.03;53.53;;;5.50;63.70;;;;;;5027801;28;20406;-73
2021/03/09 05:05:49;;;;;;;112.97;53.15;;;5.40;66.80;;;;;;5033708;28;20402;-74
2021/03/09 05:08:15;;;;;;;114.90;54.90;;;5.30;69.40;;;;;;5034493;28;20457;-73
2021/03/09 05:10:41;;;;;;;123.95;57.60;;;5.30;71.10;;;;;;5034204;28;20433;-72
2021/03/09 05:13:06;;;;;;;124.30;55.78;;;5.30;73.10;;;;;;5034145;28;20803;-74
2021/03/09 05:15:32;;;;;;;115.32;54.58;;;5.40;73.40;;;;;;5031266;28;20587;-73
2021/03/09 05:17:58;;;;;;;116.15;52.95;;;5.40;72.80;;;;;;5034373;28;20756;-73
2021/03/09 05:20:24;;;;;;;109.10;52.20;;;5.50;69.70;;;;;;5033833;28;20410;-73
2021/03/09 05:22:49;;;;;;;111.07;52.10;;;5.50;69.30;;;;;;5034366;28;20383;-73
2021/03/09 05:25:16;;;;;;;103.97;50.67;;;5.50;68.80;;;;;;5033284;28;20539;-73
2021/03/09 05:27:44;;;;;;;106.63;52.33;;;5.60;67.90;;;;;;5032937;28;20383;-73
2021/03/09 05:30:12;;;;;;;108.32;50.38;;;5.50;68.60;;;;;;5029197;28;20421;-72
2021/03/09 05:32:38;;;;;;;102.00;50.93;;;5.50;68.20;;;;;;5033044;28;20398;-73
2021/03/09 05:35:05;;;;;;;97.53;47.67;;;5.50;68.70;;;;;;5033300;28;20387;-73
2021/03/09 05:37:32;;;;;;;96.93;49.00;;;5.50;68.90;;;;;;5033292;28;20383;-73
2021/03/09 05:39:57;;;;;;;98.30;48.30;;;5.50;67.60;;;;;;5028916;28;20774;-73
2021/03/09 05:42:23;;;;;;;97.60;47.50;;;5.40;67.50;;;;;;5014413;28;20396;-72
2021/03/09 05:44:50;;;;;;;93.53;46.93;;;5.50;66.30;;;;;;5028856;28;20434;-73
2021/03/09 05:47:15;;;;;;;96.95;46.63;;;5.40;67.60;;;;;;5030884;28;20396;-74
2021/03/09 05:49:41;;;;;;;95.13;47.70;;;5.40;68.00;;;;;;5034205;28;20490;-74
2021/03/09 05:52:09;;;;;;;100.25;48.92;;;5.40;68.30;;;;;;5032777;28;20745;-74
2021/03/09 05:54:35;;;;;;;97.40;48.10;;;5.30;70.70;;;;;;5032701;28;20391;-73
2021/03/09 05:57:01;;;;;;;91.20;45.60;;;5.40;69.70;;;;;;5032597;28;20944;-74
2021/03/09 05:59:27;;;;;;;94.18;46.75;;;5.40;70.00;;;;;;5029239;28;20399;-74
2021/03/09 06:01:53;;;;;;;98.57;47.95;;;5.50;68.70;;;;;;5029858;28;20407;-72
2021/03/09 06:04:18;;;;;;;91.40;46.05;;;5.40;70.20;;;;;;4998175;28;20420;-73
2021/03/09 06:06:44;;;;;;;94.20;46.50;;;5.40;69.10;;;;;;5013778;28;20385;-73
2021/03/09 06:09:36;;;;;;;92.67;45.40;;;5.40;68.80;;;;;;5013241;28;20385;-74
2021/03/09 06:12:11;;;;;;;94.05;47.42;;;5.40;68.50;;;;;;5018330;28;20418;-75
2021/03/09 06:14:42;;;;;;;91.45;45.38;;;5.30;69.20;;;;;;5034568;28;20505;-73
2021/03/09 06:17:11;;;;;;;96.60;46.35;;;5.20;70.00;;;;;;5033765;28;20383;-74
2021/03/09 06:19:43;;;;;;;93.38;45.47;;;5.30;71.80;;;;;;5033170;28;20379;-74
2021/03/09 06:22:08;;;;;;;92.55;47.03;;;5.20;72.10;;;;;;5031835;28;20383;-73
2021/03/09 06:24:34;;;;;;;86.10;44.55;;;5.30;71.80;;;;;;5030188;28;20419;-73
2021/03/09 06:27:00;;;;;;;79.70;42.70;;;5.30;71.00;;;;;;5026511;28;20417;-73
2021/03/09 06:29:25;;;;;;;88.50;45.00;;;5.30;70.70;;;;;;5029942;28;20723;-72
2021/03/09 06:32:01;;;;;;;88.80;45.37;;;5.30;70.40;;;;;;5030194;28;20453;-72
2021/03/09 06:34:31;;;;;;;86.13;43.90;;;5.30;71.50;;;;;;5026418;28;20415;-73
2021/03/09 06:37:17;;;;;;;82.03;42.92;;;5.30;70.10;;;;;;5029917;28;20425;-73
2021/03/09 06:39:58;;;;;;;82.78;43.17;;;5.30;68.40;;;;;;5028179;28;20745;-72
2021/03/09 06:42:29;;;;;;;84.22;43.55;;;5.30;69.60;;;;;;5009321;28;20412;-73
2021/03/09 06:45:15;;;;;;;89.45;45.05;;;5.30;69.10;;;;;;5010223;28;20392;-74
2021/03/09 06:47:47;;;;;;;90.18;43.90;;;5.20;70.80;;;;;;5009991;28;20874;-72
2021/03/09 06:50:16;;;;;;;87.75;46.13;;;5.30;70.40;;;;;;5009912;28;20429;-72
2021/03/09 06:52:45;;;;;;;93.75;47.15;;;5.20;72.60;;;;;;4992170;28;20527;-74
2021/03/09 06:55:12;;;;;;;88.25;45.28;;;5.20;73.30;;;;;;5017540;28;20489;-73
2021/03/09 06:57:39;;;;;;;88.97;46.63;;;5.30;72.60;;;;;;5030253;28;20388;-72
2021/03/09 07:00:09;;;;;;;94.32;48.30;;;5.20;71.60;;;;;;5029944;28;20407;-74
2021/03/09 07:02:35;;;;;;;92.78;46.90;;;5.20;72.10;;;;;;5027466;28;20405;-74
2021/03/09 07:05:07;;;;;;;92.25;48.42;;;5.20;72.40;;;;;;5015718;28;20456;-72
2021/03/09 07:07:34;;;;;;;91.80;48.45;;;5.30;72.50;;;;;;5032881;28;20387;-71
2021/03/09 07:10:09;;;;;;;90.38;47.22;;;5.30;71.10;;;;;;5030096;28;20474;-70
2021/03/09 07:12:37;;;;;;;93.47;47.72;;;5.40;70.00;;;;;;5033939;28;20414;-72
2021/03/09 07:15:05;;;;;;;93.72;48.78;;;5.40;70.30;;;;;;5033540;28;20931;-70
2021/03/09 07:17:32;;;;;;;89.65;46.90;;;5.40;69.80;;;;;;5033949;28;20391;-71
2021/03/09 07:19:59;;;;;;;92.60;47.70;;;5.40;70.70;;;;;;5033370;28;20399;-71
2021/03/09 07:22:26;;;;;;;90.22;46.78;;;5.40;68.50;;;;;;5031566;28;20469;-71
2021/03/09 07:25:08;;;;;;;86.53;46.80;;;5.40;68.50;;;;;;5014018;28;20399;-73
2021/03/09 07:28:03;;;;;;;89.00;45.20;;;5.40;69.60;;;;;;5014705;28;20762;-72
2021/03/09 07:30:36;;;;;;;92.97;46.35;;;5.50;68.80;;;;;;5015730;28;20380;-72
2021/03/09 07:33:02;;;;;;;89.45;47.03;;;5.50;69.30;;;;;;4997329;28;20435;-72
2021/03/09 07:35:29;;;;;;;90.40;46.80;;;5.50;68.00;;;;;;4997582;28;20922;-71
2021/03/09 07:37:55;;;;;;;90.97;47.78;;;5.50;68.20;;;;;;5017517;28;20404;-72
2021/03/09 07:40:25;;;;;;;91.35;46.45;;;5.60;68.40;;;;;;5016084;28;20411;-72
2021/03/09 07:42:51;;;;;;;93.03;46.67;;;5.50;69.20;;;;;;5015948;28;20770;-71
2021/03/09 07:45:30;;;;;;;87.45;47.53;;;5.60;69.00;;;;;;5016298;28;20384;-72
2021/03/09 07:47:56;;;;;;;89.63;47.20;;;5.50;69.50;;;;;;5015455;28;20415;-72
2021/03/09 07:50:23;;;;;;;94.70;48.55;;;5.50;69.80;;;;;;5015522;28;20472;-72
2021/03/09 07:52:58;;;;;;;89.72;45.83;;;5.50;70.00;;;;;;5007477;28;20809;-72
2021/03/09 07:55:24;;;;;;;84.45;45.95;;;5.50;69.80;;;;;;5013495;28;20763;-73
2021/03/09 07:58:23;;;;;;;83.13;44.55;;;5.60;67.60;;;;;;5034967;28;20387;-72
2021/03/09 08:01:00;;;;;;;83.78;45.08;;;5.60;67.20;;;;;;5034791;28;20741;-74
2021/03/09 08:03:34;;;;;;;86.85;44.88;;;5.70;66.80;;;;;;5023981;28;20377;-73
2021/03/09 08:06:02;;;;;;;79.27;42.10;;;5.60;68.50;;;;;;5016776;28;20805;-72
2021/03/09 08:08:47;;;;;;;82.72;44.28;;;5.70;68.20;;;;;;5035305;28;20459;-74
2021/03/09 08:11:23;;;;;;;84.60;45.38;;;5.70;67.40;;;;;;5035850;28;20395;-73
2021/03/09 08:14:03;;;;;;;82.57;45.63;;;5.70;68.80;;;;;;5035228;28;20752;-73
2021/03/09 08:16:33;;;;;;;78.88;43.22;;;5.70;68.10;;;;;;5035036;28;20756;-73
2021/03/09 08:19:11;;;;;;;77.97;41.90;;;5.60;68.80;;;;;;5034581;28;20391;-74
2021/03/09 08:21:42;;;;;;;81.00;43.20;;;5.70;67.80;;;;;;5031435;28;20407;-72
2021/03/09 08:24:09;;;;;;;85.97;44.35;;;5.70;68.20;;;;;;5035452;28;20790;-73
2021/03/09 08:26:40;;;;;;;78.03;42.28;;;5.70;68.70;;;;;;5035098;28;20383;-71
2021/03/09 08:29:27;;;;;;;84.78;44.60;;;5.70;66.60;;;;;;5026969;28;20476;-73
2021/03/09 08:32:26;;;;;;;79.25;43.65;;;5.70;67.00;;;;;;5014055;28;20446;-73
2021/03/09 08:35:11;;;;;;;72.40;40.45;;;5.80;66.10;;;;;;5010815;28;20486;-73
2021/03/09 08:37:38;;;;;;;76.68;42.40;;;5.80;63.80;;;;;;5023267;28;20495;-71
2021/03/09 08:40:04;;;;;;;75.85;41.38;;;5.70;64.40;;;;;;5015920;28;20899;-73
2021/03/09 08:42:52;;;;;;;74.50;41.10;;;5.70;65.50;;;;;;5008994;28;20434;-74
2021/03/09 08:45:36;;;;;;;77.72;42.35;;;5.70;66.80;;;;;;5006246;28;20401;-76
2021/03/09 08:48:02;;;;;;;67.38;38.50;;;5.70;66.00;;;;;;5020460;28;20494;-73
2021/03/09 08:50:46;;;;;;;66.47;38.20;;;5.80;64.30;;;;;;5021231;28;20412;-73
2021/03/09 08:53:31;;;;;;;70.55;40.33;;;5.80;64.30;;;;;;5015618;28;20444;-74
2021/03/09 08:56:07;;;;;;;69.35;39.00;;;5.70;66.80;;;;;;5004547;28;20912;-72
2021/03/09 08:58:41;;;;;;;68.45;39.03;;;5.60;68.50;;;;;;5028254;28;20468;-73
2021/03/09 09:01:07;;;;;;;67.32;36.90;;;5.60;68.10;;;;;;5003204;28;20421;-72
2021/03/09 09:03:35;;;;;;;62.03;36.77;;;5.70;68.20;;;;;;5012474;28;20468;-73
2021/03/09 09:06:01;;;;;;;64.90;37.53;;;5.60;66.90;;;;;;5013374;28;20397;-73
2021/03/09 09:08:26;;;;;;;66.03;38.38;;;5.70;66.80;;;;;;5018113;28;20430;-72
2021/03/09 09:10:53;;;;;;;70.00;38.60;;;5.60;68.30;;;;;;5030105;28;20427;-72
2021/03/09 09:13:30;;;;;;;68.40;38.22;;;5.70;68.10;;;;;;5023218;28;20492;-75
2021/03/09 09:15:55;;;;;;;62.70;37.25;;;5.70;69.10;;;;;;5011954;28;20894;-75
2021/03/09 09:18:22;;;;;;;66.97;38.63;;;5.80;67.70;;;;;;5012668;28;20405;-74
2021/03/09 09:20:49;;;;;;;66.15;38.28;;;5.80;67.50;;;;;;5017150;28;20443;-73
2021/03/09 09:23:18;;;;;;;65.28;37.38;;;5.80;67.50;;;;;;5028303;28;20447;-73
2021/03/09 09:25:49;;;;;;;71.13;40.30;;;5.80;67.60;;;;;;4998732;28;20562;-73
2021/03/09 09:28:26;;;;;;;68.35;38.55;;;5.80;68.40;;;;;;5012012;28;20472;-72
2021/03/09 09:30:53;;;;;;;65.53;37.88;;;5.90;68.90;;;;;;5011583;28;20487;-74
2021/03/09 09:33:20;;;;;;;62.00;36.28;;;6.00;66.90;;;;;;5004390;28;20405;-72
2021/03/09 09:35:47;;;;;;;63.35;37.17;;;6.00;64.80;;;;;;4995858;28;20404;-74
2021/03/09 09:38:15;;;;;;;68.00;37.63;;;5.90;66.80;;;;;;5012429;28;20396;-74
2021/03/09 09:40:45;;;;;;;65.18;37.05;;;5.80;68.50;;;;;;5012753;28;20980;-73
2021/03/09 09:43:16;;;;;;;59.85;36.13;;;5.90;66.40;;;;;;5011826;28;20397;-73
2021/03/09 09:45:45;;;;;;;58.45;34.60;;;6.00;65.50;;;;;;5024245;28;20900;-74
2021/03/09 09:48:13;;;;;;;70.50;39.35;;;5.90;66.20;;;;;;5012984;28;20393;-73
2021/03/09 09:50:51;;;;;;;64.38;37.75;;;5.80;67.90;;;;;;5018515;28;20428;-74
2021/03/09 09:53:34;;;;;;;61.33;36.20;;;5.90;68.90;;;;;;5025515;28;20442;-74
2021/03/09 09:56:04;;;;;;;58.63;35.40;;;5.90;67.30;;;;;;4992568;28;20951;-73
2021/03/09 09:58:43;;;;;;;58.10;33.65;;;5.90;67.40;;;;;;5013080;28;20642;-73
2021/03/09 10:01:09;;;;;;;64.10;35.65;;;5.90;68.60;;;;;;5012008;28;20401;-72
2021/03/09 10:03:52;;;;;;;63.30;36.43;;;5.80;68.50;;;;;;5010833;28;20396;-74
2021/03/09 10:06:23;;;;;;;61.53;36.13;;;5.80;71.20;;;;;;5007977;28;20393;-73
2021/03/09 10:08:49;;;;;;;59.10;35.88;;;5.80;72.00;;;;;;5026700;28;20749;-72
2021/03/09 10:11:18;;;;;;;68.00;37.93;;;5.80;72.00;;;;;;5013554;28;20932;-76
2021/03/09 10:13:44;;;;;;;62.25;35.65;;;5.80;72.70;;;;;;5014283;28;20863;-74
2021/03/09 10:16:09;;;;;;;57.78;34.88;;;6.00;72.10;;;;;;4995904;28;20450;-72
2021/03/09 10:18:36;;;;;;;63.00;36.78;;;6.00;70.80;;;;;;5012614;28;20391;-73
2021/03/09 10:21:15;;;;;;;63.80;37.60;;;6.00;68.70;;;;;;5030072;28;20411;-72
2021/03/09 10:23:50;;;;;;;65.60;38.03;;;6.00;68.50;;;;;;5029860;28;20387;-73
2021/03/09 10:26:25;;;;;;;68.53;39.10;;;6.00;68.30;;;;;;5031023;28;20415;-71
2021/03/09 10:28:59;;;;;;;66.35;39.13;;;6.10;68.70;;;;;;5030694;28;20438;-72
2021/03/09 10:31:25;;;;;;;64.97;37.95;;;6.20;66.40;;;;;;5013434;28;20387;-72
2021/03/09 10:34:03;;;;;;;68.60;39.57;;;6.30;65.50;;;;;;5022920;28;20419;-72
2021/03/09 10:36:50;;;;;;;65.28;38.20;;;6.20;66.30;;;;;;5011135;28;20456;-70
2021/03/09 10:39:17;;;;;;;64.05;38.58;;;6.30;67.30;;;;;;5011094;28;20382;-72
2021/03/09 10:41:43;;;;;;;65.95;40.17;;;6.40;68.20;;;;;;5011544;28;20408;-72
2021/03/09 10:44:29;;;;;;;66.85;39.00;;;6.50;67.00;;;;;;5011797;28;20396;-73
2021/03/09 10:46:55;;;;;;;70.88;40.08;;;6.50;66.50;;;;;;5012033;28;20461;-72
2021/03/09 10:49:21;;;;;;;62.30;37.75;;;6.50;65.40;;;;;;5015158;28;20393;-71
2021/03/09 10:51:46;;;;;;;66.18;38.58;;;6.60;64.10;;;;;;5015796;28;20403;-72
2021/03/09 10:54:12;;;;;;;71.60;40.13;;;6.60;64.90;;;;;;5015172;28;20412;-72
2021/03/09 10:56:39;;;;;;;68.50;40.60;;;6.60;64.60;;;;;;5012134;28;20459;-73
2021/03/09 10:59:04;;;;;;;72.73;40.80;;;6.70;64.10;;;;;;5011793;28;20882;-73
2021/03/09 11:01:30;;;;;;;70.20;40.45;;;6.60;65.10;;;;;;4993059;28;20462;-72
2021/03/09 11:03:56;;;;;;;68.60;39.22;;;6.70;65.70;;;;;;4990967;28;20414;-73
2021/03/09 11:06:21;;;;;;;74.03;39.37;;;6.70;64.80;;;;;;4999620;28;20391;-73
2021/03/09 11:08:47;;;;;;;71.47;40.43;;;6.70;65.80;;;;;;5012335;28;20401;-72
2021/03/09 11:11:12;;;;;;;75.80;42.17;;;6.70;66.60;;;;;;5026833;28;20438;-73
2021/03/09 11:13:38;;;;;;;70.80;40.60;;;6.70;67.20;;;;;;5031333;28;20799;-71
2021/03/09 11:16:04;;;;;;;72.80;41.53;;;6.80;67.10;;;;;;5031077;28;20748;-74
2021/03/09 11:18:29;;;;;;;73.17;41.97;;;6.90;66.70;;;;;;5012764;28;20398;-74
2021/03/09 11:20:55;;;;;;;70.87;40.67;;;6.90;66.30;;;;;;5030597;28;20406;-74
2021/03/09 11:23:20;;;;;;;72.33;42.10;;;6.90;64.90;;;;;;5009441;28;20395;-72
2021/03/09 11:25:46;;;;;;;73.67;41.70;;;7.00;65.20;;;;;;5031034;28;20784;-75
2021/03/09 11:28:11;;;;;;;77.13;42.10;;;7.00;65.50;;;;;;5030189;28;20778;-71
2021/03/09 11:30:37;;;;;;;80.50;42.60;;;7.00;64.70;;;;;;5030268;28;20422;-72
2021/03/09 11:33:03;;;;;;;78.63;43.27;;;7.00;64.70;;;;;;5015780;28;20421;-72
2021/03/09 11:35:28;;;;;;;74.70;41.53;;;6.90;66.00;;;;;;5013413;28;20396;-73
2021/03/09 11:37:54;;;;;;;84.00;44.90;;;6.90;66.90;;;;;;5010931;28;20388;-72
2021/03/09 11:40:21;;;;;;;83.67;44.97;;;6.80;68.40;;;;;;5010854;28;20404;-74
2021/03/09 11:42:47;;;;;;;83.32;45.55;;;6.80;70.10;;;;;;4993330;28;20459;-73
2021/03/09 11:45:13;;;;;;;77.87;43.77;;;6.80;70.40;;;;;;5010462;28;20428;-74
2021/03/09 11:47:41;;;;;;;83.18;43.90;;;6.80;69.60;;;;;;5010329;28;20384;-72
2021/03/09 11:50:08;;;;;;;80.90;43.67;;;6.70;70.50;;;;;;5031126;28;20808;-73
2021/03/09 11:52:34;;;;;;;74.75;43.22;;;6.80;71.90;;;;;;5015586;28;20382;-73
2021/03/09 11:54:59;;;;;;;79.70;44.20;;;6.70;73.10;;;;;;5033205;28;20450;-73
2021/03/09 11:57:25;;;;;;;77.57;45.33;;;6.80;73.50;;;;;;5030191;28;20877;-72
2021/03/09 11:59:51;;;;;;;80.53;43.72;;;6.70;73.10;;;;;;5033448;28;20387;-73
2021/03/09 12:02:16;;;;;;;78.63;44.05;;;6.70;73.30;;;;;;5032530;28;20384;-73
2021/03/09 12:04:42;;;;;;;81.72;45.55;;;6.70;74.30;;;;;;5014643;28;20455;-73
2021/03/09 12:07:07;;;;;;;81.95;44.83;;;6.70;74.60;;;;;;5032942;28;20426;-76
2021/03/09 12:09:33;;;;;;;83.32;45.75;;;6.80;74.40;;;;;;5032906;28;20383;-74
2021/03/09 12:11:59;;;;;;;81.68;44.00;;;6.90;76.40;;;;;;5033077;28;20382;-73
2021/03/09 12:14:24;;;;;;;81.22;44.13;;;7.20;72.20;;;;;;5033167;28;20383;-73
2021/03/09 12:16:50;;;;;;;87.43;44.97;;;7.10;71.20;;;;;;5033145;28;20387;-73
2021/03/09 12:19:15;;;;;;;82.03;43.80;;;7.10;72.20;;;;;;5030108;28;20395;-73
2021/03/09 12:21:41;;;;;;;86.33;45.97;;;7.20;71.70;;;;;;5031887;28;20449;-73
2021/03/09 12:24:07;;;;;;;81.90;45.00;;;7.30;71.60;;;;;;5032597;28;20407;-74
2021/03/09 12:26:33;;;;;;;82.10;45.55;;;7.30;69.40;;;;;;5032950;28;20387;-73
2021/03/09 12:29:00;;;;;;;87.53;46.00;;;7.20;70.20;;;;;;5031457;28;20394;-74
2021/03/09 12:31:26;;;;;;;88.23;46.40;;;7.10;71.80;;;;;;5035792;28;20395;-73
2021/03/09 12:33:51;;;;;;;88.95;48.70;;;7.00;73.20;;;;;;5032389;28;20571;-75
2021/03/09 12:36:17;;;;;;;94.68;48.30;;;7.00;74.80;;;;;;5033862;28;20386;-73
2021/03/09 12:38:43;;;;;;;88.83;46.33;;;7.00;75.60;;;;;;5033452;28;20965;-73
2021/03/09 12:41:08;;;;;;;92.13;49.10;;;7.10;75.70;;;;;;5019874;28;20405;-72
2021/03/09 12:43:34;;;;;;;98.63;47.63;;;7.20;75.10;;;;;;5013804;28;20767;-74